Marquette, Nebraska
Current Conditions -  °F | °C
As of 2:35 PM on Friday 31 Oct 2014 (Local Time) from KAUH Reporting Station
Clear Clear  
Wind Chill: 37°   Ceiling: Unl
Heat Index: 41°   Visibility: 10mi
Dew Point: 10°   Wind: 6mph
Humidity: 28%   Direction: 40°NE
Pressure: 30.49"   Gusts: NA
Location:  41°N, 98.01°W
Report Text: KAUH 311935Z AUTO 04005KT 10SM CLR 05/M12 A3049 RMK AO2 T00481125
Loading
Personal Weather Stations






























Interactive Weather Map
Tropical Storm Tracking
New forecast layout! Learn more

10-Day Weather Forecast

Advertisements
Track Severe Weather on mobile